createdAt,value
2023-02-26T00:02:02.424Z,6.32
2023-02-26T00:04:30.850Z,8.05
2023-02-26T00:06:59.804Z,4.80
2023-02-26T00:09:32.488Z,9.95
2023-02-26T00:12:01.032Z,3.35
2023-02-26T00:14:33.274Z,4.50
2023-02-26T00:17:15.391Z,2.92
2023-02-26T00:19:47.479Z,7.78
2023-02-26T00:22:16.548Z,7.50
2023-02-26T00:24:44.824Z,6.35
2023-02-26T00:27:13.897Z,3.60
2023-02-26T00:29:43.881Z,4.10
2023-02-26T00:32:15.068Z,3.00
2023-02-26T00:34:44.882Z,2.67
2023-02-26T00:37:17.454Z,3.33
2023-02-26T00:39:55.303Z,5.18
2023-02-26T00:42:23.858Z,7.78
2023-02-26T00:44:54.750Z,5.15
2023-02-26T00:47:25.452Z,3.10
2023-02-26T00:49:58.277Z,4.07
2023-02-26T00:52:29.779Z,4.97
2023-02-26T00:54:58.134Z,7.82
2023-02-26T00:57:26.437Z,6.53
2023-02-26T00:59:56.152Z,5.18
2023-02-26T01:02:25.267Z,2.95
2023-02-26T01:04:54.102Z,4.03
2023-02-26T01:07:24.900Z,4.72
2023-02-26T01:09:53.503Z,6.75
2023-02-26T01:12:22.582Z,7.13
2023-02-26T01:14:58.079Z,3.97
2023-02-26T01:17:30.957Z,4.93
2023-02-26T01:23:10.730Z,5.05
2023-02-26T01:25:41.182Z,6.13
2023-02-26T01:28:09.939Z,5.10
2023-02-26T01:30:38.797Z,3.35
2023-02-26T01:33:13.136Z,3.67
2023-02-26T01:35:43.622Z,4.55
2023-02-26T01:38:17.435Z,4.07
2023-02-26T01:43:15.536Z,7.88
2023-02-26T01:45:52.429Z,2.78
2023-02-26T01:48:30.410Z,5.03
2023-02-26T01:50:58.774Z,4.78
2023-02-26T01:53:27.987Z,5.75
2023-02-26T01:55:58.187Z,7.38
2023-02-26T01:58:27.738Z,2.50
2023-02-26T02:00:56.092Z,2.65
2023-02-26T02:03:27.825Z,3.83
2023-02-26T02:05:57.661Z,4.75
2023-02-26T02:08:26.392Z,4.93
2023-02-26T02:10:54.977Z,4.82
2023-02-26T02:13:29.874Z,2.92
2023-02-26T02:16:03.972Z,4.95
2023-02-26T02:18:38.010Z,4.65
2023-02-26T02:21:27.705Z,2.47
2023-02-26T02:23:58.689Z,6.45
2023-02-26T02:26:47.982Z,2.50
2023-02-26T02:29:34.289Z,2.80
2023-02-26T02:32:07.658Z,3.25
2023-02-26T02:34:38.207Z,2.65
2023-02-26T02:37:08.697Z,2.53
2023-02-26T02:39:42.055Z,5.32
2023-02-26T02:42:18.878Z,3.78
2023-02-26T02:44:49.103Z,3.35
2023-02-26T02:47:20.181Z,4.57
2023-02-26T02:49:50.627Z,3.45
2023-02-26T02:52:21.236Z,2.20
2023-02-26T02:54:51.618Z,2.92
2023-02-26T02:57:22.174Z,3.83
2023-02-26T02:59:52.015Z,2.58
2023-02-26T03:02:25.654Z,3.42
2023-02-26T03:04:54.370Z,3.60
2023-02-26T03:07:22.705Z,3.58
2023-02-26T03:09:51.269Z,5.53
2023-02-26T03:12:19.558Z,4.03
2023-02-26T03:14:47.947Z,4.38
2023-02-26T03:17:21.495Z,2.70
2023-02-26T03:19:57.754Z,5.47
2023-02-26T03:22:30.601Z,2.97
2023-02-26T03:25:01.750Z,7.47
2023-02-26T03:27:33.296Z,5.75
2023-02-26T03:30:04.163Z,4.32
2023-02-26T03:32:34.976Z,3.72
2023-02-26T03:35:07.744Z,6.78
2023-02-26T03:37:38.491Z,6.50
2023-02-26T03:40:09.526Z,7.82
2023-02-26T03:42:39.590Z,4.05
2023-02-26T03:45:09.844Z,4.18
2023-02-26T03:47:38.451Z,3.05
2023-02-26T03:50:09.745Z,3.13
2023-02-26T03:52:40.841Z,5.22
2023-02-26T03:55:11.765Z,2.60
2023-02-26T03:57:40.228Z,4.53
2023-02-26T04:00:10.175Z,5.78
2023-02-26T04:02:40.878Z,3.42
2023-02-26T04:05:15.813Z,3.95
2023-02-26T04:07:44.554Z,4.60
2023-02-26T04:10:13.278Z,5.32
2023-02-26T04:12:41.554Z,3.10
2023-02-26T04:15:10.421Z,4.32
2023-02-26T04:17:38.940Z,3.97
2023-02-26T04:20:09.921Z,6.22
2023-02-26T04:22:39.840Z,6.57
2023-02-26T04:25:08.651Z,3.20
2023-02-26T04:27:36.973Z,6.25
2023-02-26T04:30:05.621Z,3.45
2023-02-26T04:32:34.059Z,2.85
2023-02-26T04:35:02.361Z,2.60
2023-02-26T04:37:30.699Z,4.78
2023-02-26T04:40:00.368Z,2.97
2023-02-26T04:42:28.664Z,2.15
2023-02-26T04:44:57.280Z,3.67
2023-02-26T04:47:25.574Z,2.20
2023-02-26T04:49:53.865Z,5.85
2023-02-26T04:52:22.207Z,3.30
2023-02-26T04:54:50.509Z,4.28
2023-02-26T04:57:20.207Z,3.70
2023-02-26T04:59:48.566Z,3.95
2023-02-26T05:02:16.884Z,2.85
2023-02-26T05:04:45.254Z,5.30
2023-02-26T05:07:13.976Z,4.18
2023-02-26T05:09:42.260Z,4.03
2023-02-26T05:12:10.564Z,3.83
2023-02-26T05:14:40.181Z,2.63
2023-02-26T05:17:08.456Z,2.97
2023-02-26T05:19:36.760Z,4.05
2023-02-26T05:22:05.107Z,4.07
2023-02-26T05:24:33.389Z,7.05
2023-02-26T05:27:01.682Z,2.70
2023-02-26T05:29:30.952Z,2.50
2023-02-26T05:32:00.624Z,3.47
2023-02-26T05:34:28.988Z,2.88
2023-02-26T05:36:57.302Z,3.30
2023-02-26T05:39:25.637Z,9.95
2023-02-26T05:41:55.484Z,5.60
2023-02-26T05:44:23.799Z,4.28
2023-02-26T05:46:52.257Z,4.30
2023-02-26T05:49:21.919Z,7.90
2023-02-26T05:51:50.240Z,5.22
2023-02-26T05:54:18.529Z,4.80
2023-02-26T05:56:47.002Z,5.43
2023-02-26T05:59:15.354Z,3.80
2023-02-26T06:01:43.755Z,5.63
2023-02-26T06:04:12.141Z,5.28
2023-02-26T06:06:42.040Z,4.32
2023-02-26T06:09:10.590Z,3.63
2023-02-26T06:11:40.505Z,3.53
2023-02-26T06:14:08.866Z,3.15
2023-02-26T06:16:37.251Z,5.57
2023-02-26T06:19:06.209Z,3.85
2023-02-26T06:21:34.494Z,3.50
2023-02-26T06:24:04.148Z,3.60
2023-02-26T06:26:32.437Z,5.13
2023-02-26T06:29:00.724Z,3.38
2023-02-26T06:31:29.078Z,3.25
2023-02-26T06:33:57.442Z,3.78
2023-02-26T06:36:25.991Z,6.82
2023-02-26T06:38:54.478Z,4.07
2023-02-26T06:41:24.121Z,5.65
2023-02-26T06:43:52.428Z,3.35
2023-02-26T06:46:24.781Z,5.53
2023-02-26T06:48:53.210Z,4.50
2023-02-26T06:51:21.499Z,8.80
2023-02-26T06:53:49.802Z,5.20
2023-02-26T06:56:18.141Z,2.72
2023-02-26T06:58:47.785Z,10.68
2023-02-26T07:01:18.927Z,4.60
2023-02-26T07:03:47.219Z,4.78
2023-02-26T07:06:38.304Z,5.03
2023-02-26T07:09:04.059Z,3.20
2023-02-26T07:11:32.430Z,4.25
2023-02-26T07:14:02.097Z,3.00
2023-02-26T07:16:30.442Z,4.35
2023-02-26T07:18:58.799Z,4.25
2023-02-26T07:21:27.108Z,3.95
2023-02-26T07:23:55.429Z,6.30
2023-02-26T07:26:23.974Z,10.57
2023-02-26T07:28:52.528Z,7.05
2023-02-26T07:31:22.240Z,6.57
2023-02-26T07:33:50.597Z,3.92
2023-02-26T07:36:18.862Z,3.40
2023-02-26T07:38:48.300Z,2.80
2023-02-26T07:41:16.604Z,3.85
2023-02-26T07:43:50.072Z,3.75
2023-02-26T07:46:18.428Z,5.32
2023-02-26T07:48:48.185Z,4.20
2023-02-26T07:51:16.517Z,3.55
2023-02-26T07:53:44.904Z,5.30
2023-02-26T07:56:13.206Z,4.43
2023-02-26T07:58:41.697Z,3.88
2023-02-26T08:01:10.013Z,5.15
2023-02-26T08:03:38.602Z,5.85
2023-02-26T08:06:08.794Z,5.28
2023-02-26T08:08:37.322Z,3.55
2023-02-26T08:11:05.984Z,4.07
2023-02-26T08:13:34.705Z,3.45
2023-02-26T08:16:03.064Z,3.38
2023-02-26T08:18:31.348Z,6.13
2023-02-26T08:20:59.651Z,5.38
2023-02-26T08:23:29.322Z,10.20
2023-02-26T08:26:02.226Z,5.43
2023-02-26T08:28:30.695Z,4.27
2023-02-26T08:30:59.117Z,5.97
2023-02-26T08:33:27.568Z,4.07
2023-02-26T08:35:59.153Z,3.30
2023-02-26T08:38:29.166Z,3.15
2023-02-26T08:40:57.509Z,3.92
2023-02-26T08:43:26.169Z,4.15
2023-02-26T08:45:54.991Z,4.75
2023-02-26T08:48:23.492Z,2.30
2023-02-26T08:50:52.044Z,2.58
2023-02-26T08:53:20.359Z,2.30
2023-02-26T08:55:51.160Z,2.75
2023-02-26T08:58:19.701Z,2.03
2023-02-26T09:00:51.134Z,1.33
2023-02-26T09:03:19.534Z,1.75
2023-02-26T09:05:47.856Z,2.30
2023-02-26T09:08:20.583Z,2.45
2023-02-26T09:10:48.929Z,2.17
2023-02-26T09:13:18.677Z,2.03
2023-02-26T09:15:50.598Z,1.83
2023-02-26T09:18:18.900Z,1.45
2023-02-26T09:20:47.363Z,1.88
2023-02-26T09:23:15.677Z,2.55
2023-02-26T09:25:44.016Z,1.70
2023-02-26T09:28:12.343Z,2.17
2023-02-26T09:30:42.145Z,2.45
2023-02-26T09:33:10.802Z,2.40
2023-02-26T09:35:39.125Z,2.42
2023-02-26T09:38:08.213Z,2.03
2023-02-26T09:40:42.480Z,3.58
2023-02-26T09:43:36.872Z,3.10
2023-02-26T09:48:36.573Z,2.45
2023-02-26T09:51:05.178Z,2.47
2023-02-26T09:53:35.090Z,4.43
2023-02-26T09:56:05.360Z,4.10
2023-02-26T09:58:39.421Z,2.92
2023-02-26T10:01:16.508Z,4.30
2023-02-26T10:03:53.345Z,2.88
2023-02-26T10:06:24.043Z,2.92
2023-02-26T10:09:07.875Z,3.15
2023-02-26T10:11:41.612Z,3.78
2023-02-26T10:16:41.946Z,5.72
2023-02-26T10:19:13.731Z,5.47
2023-02-26T10:21:44.335Z,5.55
2023-02-26T10:24:15.029Z,4.60
2023-02-26T10:26:45.517Z,3.78
2023-02-26T10:29:21.505Z,2.17
2023-02-26T10:31:57.382Z,1.70
2023-02-26T10:34:30.952Z,3.03
2023-02-26T10:37:03.121Z,2.85
2023-02-26T10:39:34.371Z,2.53
2023-02-26T10:42:04.573Z,2.00
2023-02-26T10:44:37.456Z,2.00
2023-02-26T10:47:11.008Z,3.10
2023-02-26T10:49:50.596Z,3.30
2023-02-26T10:52:33.353Z,2.75
2023-02-26T10:55:19.315Z,2.63
2023-02-26T10:57:50.182Z,2.25
2023-02-26T11:00:21.530Z,2.65
2023-02-26T11:02:52.031Z,2.70
2023-02-26T11:05:23.290Z,1.63
2023-02-26T11:08:11.408Z,3.70
2023-02-26T11:13:53.835Z,1.70
2023-02-26T11:16:22.184Z,1.98
2023-02-26T11:18:54.245Z,1.67
2023-02-26T11:21:26.421Z,1.67
2023-02-26T11:23:58.006Z,2.67
2023-02-26T11:26:28.550Z,2.17
2023-02-26T11:28:57.111Z,2.22
2023-02-26T11:31:27.154Z,2.25
2023-02-26T11:33:56.861Z,2.08
2023-02-26T11:36:27.819Z,2.17
2023-02-26T11:38:58.644Z,2.13
2023-02-26T11:41:27.949Z,3.45
2023-02-26T11:44:00.573Z,3.10
2023-02-26T11:46:29.186Z,2.25
2023-02-26T11:48:58.433Z,3.03
2023-02-26T11:51:31.509Z,2.10
2023-02-26T11:54:01.477Z,2.72
2023-02-26T11:56:34.049Z,2.03
2023-02-26T11:59:09.177Z,2.13
2023-02-26T12:01:38.311Z,2.40
2023-02-26T12:04:06.675Z,1.73
2023-02-26T12:06:36.396Z,1.83
2023-02-26T12:09:05.193Z,2.95
2023-02-26T12:11:43.498Z,2.10
2023-02-26T12:14:25.136Z,2.08
2023-02-26T12:16:59.457Z,1.55
2023-02-26T12:19:33.670Z,2.25
2023-02-26T12:22:16.042Z,3.42
2023-02-26T12:24:50.996Z,2.75
2023-02-26T12:27:24.769Z,3.05
2023-02-26T12:32:27.027Z,3.53
2023-02-26T12:37:33.917Z,3.25
2023-02-26T12:40:08.345Z,2.30
2023-02-26T12:42:42.875Z,2.58
2023-02-26T12:45:19.579Z,3.47
2023-02-26T12:47:53.488Z,3.15
2023-02-26T12:50:26.360Z,2.33
2023-02-26T12:53:10.776Z,4.70
2023-02-26T12:55:42.107Z,3.85
2023-02-26T12:58:30.780Z,5.38
2023-02-26T13:01:10.199Z,2.28
2023-02-26T13:03:56.414Z,2.05
2023-02-26T13:06:39.746Z,4.32
2023-02-26T13:09:14.716Z,4.38
2023-02-26T13:11:48.260Z,3.00
2023-02-26T13:14:23.400Z,2.78
2023-02-26T13:16:53.657Z,1.98
2023-02-26T13:19:28.454Z,1.60
2023-02-26T13:22:05.232Z,2.00
2023-02-26T13:24:37.222Z,5.18
2023-02-26T13:27:07.887Z,2.70
2023-02-26T13:29:40.156Z,2.60
2023-02-26T13:32:13.778Z,1.92
2023-02-26T13:34:43.789Z,6.55
2023-02-26T13:37:21.908Z,1.95
2023-02-26T13:39:56.467Z,3.83
2023-02-26T13:42:29.262Z,2.92
2023-02-26T13:45:06.382Z,3.33
2023-02-26T13:47:43.039Z,3.33
2023-02-26T13:50:21.320Z,3.13
2023-02-26T13:52:53.918Z,2.58
2023-02-26T13:55:45.001Z,1.88
2023-02-26T13:58:29.428Z,2.83
2023-02-26T14:01:02.513Z,3.00
2023-02-26T14:03:33.648Z,1.60
2023-02-26T14:06:24.155Z,2.00
2023-02-26T14:08:56.069Z,1.40
2023-02-26T14:11:51.531Z,1.90
2023-02-26T14:14:27.922Z,1.45
2023-02-26T14:16:57.629Z,2.45
2023-02-26T14:19:29.205Z,1.30
2023-02-26T14:21:59.151Z,2.97
2023-02-26T14:24:36.481Z,1.55
2023-02-26T14:27:24.318Z,1.88
2023-02-26T14:30:01.536Z,1.65
2023-02-26T14:32:32.713Z,1.60
2023-02-26T14:35:02.423Z,2.15
2023-02-26T14:37:31.975Z,2.88
2023-02-26T14:40:03.903Z,2.00
2023-02-26T14:42:35.502Z,1.90
2023-02-26T14:45:10.701Z,2.75
2023-02-26T14:47:39.679Z,3.08
2023-02-26T14:50:08.907Z,2.00
2023-02-26T14:52:58.196Z,2.78
2023-02-26T14:55:36.108Z,1.33
2023-02-26T14:58:12.086Z,3.55
2023-02-26T15:00:45.526Z,2.58
2023-02-26T15:03:33.229Z,2.40
2023-02-26T15:06:06.315Z,1.60
2023-02-26T15:08:41.056Z,1.70
2023-02-26T15:11:20.938Z,1.80
2023-02-26T15:14:05.100Z,1.25
2023-02-26T15:19:14.554Z,2.30
2023-02-26T15:21:49.786Z,1.65
2023-02-26T15:24:18.308Z,2.90
2023-02-26T15:26:48.414Z,2.85
2023-02-26T15:29:17.953Z,1.90
2023-02-26T15:31:49.226Z,2.85
2023-02-26T15:34:19.698Z,2.28
2023-02-26T15:36:51.462Z,1.63
2023-02-26T15:39:22.106Z,2.20
2023-02-26T15:41:51.382Z,1.65
2023-02-26T15:44:22.200Z,5.32
2023-02-26T15:46:52.590Z,3.90
2023-02-26T15:49:25.955Z,2.88
2023-02-26T15:51:55.034Z,4.18
2023-02-26T15:54:24.977Z,5.22
2023-02-26T15:56:53.420Z,3.20
2023-02-26T15:59:26.711Z,2.22
2023-02-26T16:01:56.090Z,1.77
2023-02-26T16:04:25.857Z,7.53
2023-02-26T16:06:58.669Z,2.22
2023-02-26T16:09:29.207Z,2.80
2023-02-26T16:12:01.517Z,2.83
2023-02-26T16:14:31.978Z,2.58
2023-02-26T16:17:04.231Z,5.95
2023-02-26T16:19:36.001Z,1.63
2023-02-26T16:22:06.022Z,3.25
2023-02-26T16:24:36.986Z,3.03
2023-02-26T16:27:08.979Z,4.13
2023-02-26T16:29:40.778Z,7.47
2023-02-26T16:32:12.985Z,4.18
2023-02-26T16:34:44.412Z,5.80
2023-02-26T16:37:14.719Z,4.00
2023-02-26T16:39:45.547Z,8.38
2023-02-26T16:42:16.896Z,3.95
2023-02-26T16:44:53.397Z,3.80
2023-02-26T16:47:25.909Z,1.80
2023-02-26T16:49:59.809Z,1.95
2023-02-26T16:52:35.915Z,2.20
2023-02-26T16:55:08.036Z,2.60
2023-02-26T16:57:44.787Z,4.03
2023-02-26T17:00:20.004Z,3.70
2023-02-26T17:02:54.195Z,3.70
2023-02-26T17:05:28.863Z,3.15
2023-02-26T17:07:58.701Z,2.40
2023-02-26T17:10:40.474Z,2.50
2023-02-26T17:13:15.064Z,3.03
2023-02-26T17:15:43.570Z,3.65
2023-02-26T17:18:11.819Z,3.25
2023-02-26T17:20:41.099Z,3.92
2023-02-26T17:23:17.764Z,3.28
2023-02-26T17:25:50.262Z,2.72
2023-02-26T17:28:20.760Z,3.40
2023-02-26T17:30:49.112Z,10.82
2023-02-26T17:33:17.518Z,4.82
2023-02-26T17:35:46.075Z,3.20
2023-02-26T17:38:15.913Z,2.20
2023-02-26T17:40:45.364Z,2.78
2023-02-26T17:43:15.540Z,2.95
2023-02-26T17:45:44.037Z,2.88
2023-02-26T17:48:13.414Z,2.40
2023-02-26T17:50:43.900Z,4.03
2023-02-26T17:53:12.232Z,2.88
2023-02-26T17:55:40.903Z,3.05
2023-02-26T17:58:09.758Z,3.40
2023-02-26T18:00:41.996Z,3.28
2023-02-26T18:03:10.454Z,4.93
2023-02-26T18:06:10.095Z,3.55
2023-02-26T18:08:40.901Z,4.22
2023-02-26T18:11:11.811Z,4.15
2023-02-26T18:13:40.555Z,2.83
2023-02-26T18:16:14.477Z,2.83
2023-02-26T18:18:42.853Z,2.72
2023-02-26T18:21:15.129Z,3.08
2023-02-26T18:23:45.428Z,2.30
2023-02-26T18:26:14.780Z,1.85
2023-02-26T18:28:43.141Z,3.08
2023-02-26T18:31:19.076Z,3.72
2023-02-26T18:33:48.354Z,2.75
2023-02-26T18:36:21.062Z,3.33
2023-02-26T18:38:53.403Z,3.60
2023-02-26T18:41:21.669Z,2.85
2023-02-26T18:43:50.070Z,5.25
2023-02-26T18:46:19.864Z,5.05
2023-02-26T18:48:48.351Z,3.38
2023-02-26T18:51:16.746Z,5.30
2023-02-26T18:53:45.252Z,5.90
2023-02-26T18:56:16.492Z,3.75
2023-02-26T18:58:44.876Z,6.55
2023-02-26T19:01:13.383Z,6.53
2023-02-26T19:03:50.579Z,10.15
2023-02-26T19:06:31.127Z,7.63
2023-02-26T19:09:10.381Z,10.30
2023-02-26T19:11:39.126Z,7.30
2023-02-26T19:14:07.433Z,10.95
2023-02-26T19:16:38.988Z,8.07
2023-02-26T19:19:11.217Z,5.65
2023-02-26T19:21:41.100Z,6.87
2023-02-26T19:24:16.214Z,3.80
2023-02-26T19:26:50.412Z,6.82
2023-02-26T19:29:24.686Z,6.78
2023-02-26T19:31:53.338Z,6.22
2023-02-26T19:34:23.567Z,5.22
2023-02-26T19:36:53.631Z,4.80
2023-02-26T19:39:22.232Z,3.47
2023-02-26T19:41:52.649Z,4.78
2023-02-26T19:44:21.323Z,4.32
2023-02-26T19:46:50.119Z,3.67
2023-02-26T19:49:18.789Z,4.90
2023-02-26T19:51:48.537Z,5.68
2023-02-26T19:54:16.969Z,6.68
2023-02-26T19:56:45.844Z,6.30
2023-02-26T19:59:14.300Z,12.00
2023-02-26T20:01:57.898Z,13.10
2023-02-26T20:04:26.648Z,23.58
2023-02-26T20:07:00.712Z,34.22
2023-02-26T20:09:49.452Z,31.70
2023-02-26T20:12:18.158Z,23.88
2023-02-26T20:14:46.491Z,22.48
2023-02-26T20:17:14.799Z,15.85
2023-02-26T20:19:44.545Z,18.85
2023-02-26T20:22:18.434Z,11.95
2023-02-26T20:24:48.223Z,11.38
2023-02-26T20:27:16.587Z,7.20
2023-02-26T20:29:46.644Z,5.65
2023-02-26T20:32:17.579Z,5.57
2023-02-26T20:34:51.884Z,5.38
2023-02-26T20:37:21.597Z,5.65
2023-02-26T20:39:57.461Z,5.82
2023-02-26T20:42:26.467Z,7.18
2023-02-26T20:44:54.894Z,10.10
2023-02-26T20:47:23.252Z,9.68
2023-02-26T20:50:03.102Z,8.65
2023-02-26T20:52:32.903Z,6.63
2023-02-26T20:55:05.372Z,3.78
2023-02-26T20:57:35.418Z,4.85
2023-02-26T21:00:13.977Z,5.20
2023-02-26T21:02:42.654Z,3.85
2023-02-26T21:05:19.792Z,4.45
2023-02-26T21:07:53.768Z,4.00
2023-02-26T21:10:22.065Z,3.00
2023-02-26T21:12:51.704Z,5.28
2023-02-26T21:15:20.296Z,4.45
2023-02-26T21:17:48.597Z,3.78
2023-02-26T21:20:18.096Z,3.42
2023-02-26T21:22:48.684Z,3.15
2023-02-26T21:25:19.057Z,4.95
2023-02-26T21:27:48.842Z,3.42
2023-02-26T21:30:17.996Z,3.78
2023-02-26T21:33:00.198Z,6.53
2023-02-26T21:35:28.852Z,2.78
2023-02-26T21:38:04.485Z,6.18
2023-02-26T21:40:47.000Z,5.20
2023-02-26T21:43:15.654Z,4.60
2023-02-26T21:45:44.331Z,2.47
2023-02-26T21:48:12.839Z,3.97
2023-02-26T21:50:41.125Z,6.07
2023-02-26T21:53:09.469Z,6.20
2023-02-26T21:55:39.074Z,2.13
2023-02-26T21:58:08.028Z,2.80
2023-02-26T22:00:36.393Z,2.95
2023-02-26T22:03:09.761Z,5.10
2023-02-26T22:05:47.958Z,2.80
2023-02-26T22:08:16.301Z,3.72
2023-02-26T22:10:47.428Z,5.05
2023-02-26T22:13:55.434Z,2.72
2023-02-26T22:16:23.465Z,3.42
2023-02-26T22:18:55.011Z,3.20
2023-02-26T22:21:24.292Z,3.25
2023-02-26T22:23:52.804Z,3.05
2023-02-26T22:26:22.579Z,4.75
2023-02-26T22:28:55.446Z,3.88
2023-02-26T22:31:24.007Z,4.60
2023-02-26T22:33:54.703Z,4.15
2023-02-26T22:36:26.692Z,2.50
2023-02-26T22:39:00.538Z,2.75
2023-02-26T22:41:33.402Z,5.07
2023-02-26T22:44:02.067Z,6.10
2023-02-26T22:46:30.953Z,10.90
2023-02-26T22:49:05.505Z,3.17
2023-02-26T22:51:33.958Z,5.55
2023-02-26T22:54:02.655Z,3.92
2023-02-26T22:56:35.474Z,3.90
2023-02-26T22:59:03.792Z,4.43
2023-02-26T23:01:35.837Z,3.38
2023-02-26T23:04:04.216Z,5.00
2023-02-26T23:06:32.491Z,4.65
2023-02-26T23:09:00.862Z,4.13
2023-02-26T23:11:29.429Z,3.70
2023-02-26T23:13:59.264Z,5.55
2023-02-26T23:16:28.709Z,3.58
2023-02-26T23:19:04.656Z,4.40
2023-02-26T23:21:33.066Z,4.57
2023-02-26T23:24:01.338Z,5.03
2023-02-26T23:26:30.087Z,2.90
2023-02-26T23:28:59.790Z,3.78
2023-02-26T23:31:28.593Z,4.80
2023-02-26T23:33:57.108Z,5.25
2023-02-26T23:36:25.387Z,4.05
2023-02-26T23:38:53.659Z,4.93
2023-02-26T23:41:26.245Z,4.53
2023-02-26T23:43:54.723Z,3.58
2023-02-26T23:46:24.409Z,5.63
2023-02-26T23:48:52.692Z,4.28
2023-02-26T23:51:21.046Z,3.13
2023-02-26T23:53:49.330Z,3.17
2023-02-26T23:56:17.644Z,4.85
2023-02-26T23:58:45.934Z,4.13
